Arlington Heights, Massachusetts
Current Conditions -  °F | °C
As of 8:56 AM on Thursday 18 Dec 2014 (Local Time) from KBED Reporting Station
Overcast Overcast  
Wind Chill: 29°   Ceiling: 5000
Heat Index: 36°   Visibility: 10mi
Dew Point: 33°   Wind: 9mph
Humidity: 89%   Direction: 260°W
Pressure: 29.77"   Gusts: NA
Location:  42.42°N, 71.17°W
Report Text: KBED 181356Z 26008KT 10SM BKN050 OVC060 02/01 A2977 RMK AO2 UPB10E21RAB21E22SNE10 SLP095 P0000 T00220006
Loading
Personal Weather Stations






























Interactive Weather Map New forecast layout! Learn more

10-Day Weather Forecast

Advertisements
Track Severe Weather on mobile